RYR619 EBBR-EGNT
Flight info
| Callsign | RYR619 |
|---|---|
| Flight time | N/A |
| Altitude | 38000 |
| Route | DENUT L610 NILON DCT WESUL M14 STOAT L613 MAMUL UY250 RIMTO |
| Aircraft | B38M/M-SDE1FGHILORVWXY/HB1 |
Departure
| Time | 2026-05-06 17:37 |
|---|---|
| Airport | Brussels Airport (EBBR) |
Arrival
| Time | N/A |
|---|---|
| Airport | Newcastle International Airport (EGNT) |
| Time | Latitude | Longitude | Altitude | Speed | Heading |
|---|---|---|---|---|---|
| 2026-05-06 17:04 | 50.90364 | 4.48424 | 121 ft | 0 kts | 155° |
| 2026-05-06 17:20 | 50.90373 | 4.48417 | 121 ft | 3 kts | 155° |
| 2026-05-06 17:20 | 50.90391 | 4.48404 | 118 ft | 3 kts | 155° |
| 2026-05-06 17:20 | 50.90409 | 4.48391 | 118 ft | 2 kts | 155° |
| 2026-05-06 17:21 | 50.90424 | 4.48379 | 121 ft | 3 kts | 140° |
| 2026-05-06 17:21 | 50.90433 | 4.48358 | 118 ft | 3 kts | 92° |
| 2026-05-06 17:21 | 50.90430 | 4.48329 | 119 ft | 3 kts | 66° |
| 2026-05-06 17:21 | 50.90426 | 4.48315 | 119 ft | 1 kts | 65° |
| 2026-05-06 17:22 | 50.90425 | 4.48313 | 119 ft | 0 kts | 65° |
| 2026-05-06 17:27 | 50.90425 | 4.48315 | 123 ft | 1 kts | 65° |
| 2026-05-06 17:28 | 50.90432 | 4.48338 | 119 ft | 4 kts | 65° |
| 2026-05-06 17:28 | 50.90447 | 4.48388 | 122 ft | 6 kts | 65° |
| 2026-05-06 17:28 | 50.90469 | 4.48464 | 121 ft | 9 kts | 65° |
| 2026-05-06 17:28 | 50.90498 | 4.48565 | 119 ft | 11 kts | 65° |
| 2026-05-06 17:29 | 50.90534 | 4.48688 | 121 ft | 14 kts | 65° |
| 2026-05-06 17:29 | 50.90577 | 4.48835 | 121 ft | 16 kts | 65° |
| 2026-05-06 17:29 | 50.90621 | 4.49002 | 120 ft | 16 kts | 82° |
| 2026-05-06 17:29 | 50.90613 | 4.49137 | 124 ft | 12 kts | 117° |
| 2026-05-06 17:30 | 50.90550 | 4.49204 | 125 ft | 12 kts | 155° |
| 2026-05-06 17:30 | 50.90463 | 4.49267 | 124 ft | 16 kts | 155° |
| 2026-05-06 17:30 | 50.90358 | 4.49347 | 125 ft | 17 kts | 147° |
| 2026-05-06 17:30 | 50.90259 | 4.49394 | 129 ft | 14 kts | 193° |
| 2026-05-06 17:31 | 50.90157 | 4.49354 | 132 ft | 16 kts | 194° |
| 2026-05-06 17:31 | 50.90044 | 4.49308 | 133 ft | 18 kts | 194° |
| 2026-05-06 17:31 | 50.89919 | 4.49257 | 139 ft | 18 kts | 194° |
| 2026-05-06 17:31 | 50.89797 | 4.49208 | 146 ft | 18 kts | 194° |
| 2026-05-06 17:32 | 50.89681 | 4.49159 | 152 ft | 17 kts | 194° |
| 2026-05-06 17:32 | 50.89582 | 4.49074 | 157 ft | 17 kts | 200° |
| 2026-05-06 17:32 | 50.89468 | 4.49027 | 161 ft | 17 kts | 193° |
| 2026-05-06 17:32 | 50.89349 | 4.48980 | 166 ft | 18 kts | 198° |
| 2026-05-06 17:33 | 50.89285 | 4.48854 | 167 ft | 17 kts | 250° |
| 2026-05-06 17:33 | 50.89240 | 4.48655 | 166 ft | 21 kts | 250° |
| 2026-05-06 17:33 | 50.89185 | 4.48416 | 166 ft | 25 kts | 250° |
| 2026-05-06 17:33 | 50.89125 | 4.48157 | 166 ft | 23 kts | 250° |
| 2026-05-06 17:34 | 50.89085 | 4.47984 | 166 ft | 4 kts | 249° |
| 2026-05-06 17:34 | 50.89079 | 4.47963 | 166 ft | 4 kts | 247° |
| 2026-05-06 17:34 | 50.89064 | 4.47926 | 167 ft | 0 kts | 223° |
| 2026-05-06 17:34 | 50.89064 | 4.47925 | 167 ft | 0 kts | 223° |
| 2026-05-06 17:36 | 50.89056 | 4.47914 | 167 ft | 2 kts | 220° |
| 2026-05-06 17:36 | 50.89027 | 4.47899 | 170 ft | 7 kts | 182° |
| 2026-05-06 17:36 | 50.88962 | 4.47930 | 177 ft | 11 kts | 143° |
| 2026-05-06 17:36 | 50.88934 | 4.48050 | 181 ft | 13 kts | 102° |
| 2026-05-06 17:37 | 50.88949 | 4.48231 | 181 ft | 28 kts | 70° |
| 2026-05-06 17:37 | 50.89126 | 4.48994 | 179 ft | 118 kts | 70° |
| 2026-05-06 17:37 | 50.89470 | 4.50549 | 430 ft | 169 kts | 69° |
| 2026-05-06 17:37 | 50.89903 | 4.52517 | 1010 ft | 209 kts | 68° |
| 2026-05-06 17:38 | 50.90492 | 4.54831 | 1448 ft | 242 kts | 61° |
| 2026-05-06 17:38 | 50.91641 | 4.56873 | 2165 ft | 251 kts | 30° |
| 2026-05-06 17:38 | 50.93240 | 4.57320 | 3698 ft | 230 kts | 349° |
| 2026-05-06 17:38 | 50.94625 | 4.56084 | 4906 ft | 237 kts | 313° |
| 2026-05-06 17:39 | 50.95423 | 4.53680 | 5371 ft | 257 kts | 289° |
| 2026-05-06 17:39 | 50.96011 | 4.50974 | 5474 ft | 262 kts | 293° |
| 2026-05-06 17:39 | 50.96711 | 4.48297 | 5651 ft | 263 kts | 295° |
| 2026-05-06 17:39 | 50.97471 | 4.45655 | 5803 ft | 265 kts | 297° |
| 2026-05-06 17:40 | 50.98282 | 4.43023 | 6463 ft | 264 kts | 297° |
| 2026-05-06 17:40 | 50.99108 | 4.40419 | 7574 ft | 266 kts | 298° |
| 2026-05-06 17:40 | 50.99965 | 4.37771 | 8568 ft | 273 kts | 298° |
| 2026-05-06 17:40 | 51.00847 | 4.35079 | 9611 ft | 278 kts | 298° |
| 2026-05-06 17:41 | 51.01759 | 4.32320 | 10450 ft | 288 kts | 298° |
| 2026-05-06 17:41 | 51.02731 | 4.29432 | 11066 ft | 304 kts | 299° |
| 2026-05-06 17:41 | 51.03747 | 4.26409 | 11758 ft | 316 kts | 298° |
| 2026-05-06 17:41 | 51.04791 | 4.23292 | 12600 ft | 321 kts | 298° |
| 2026-05-06 17:42 | 51.05841 | 4.20127 | 13486 ft | 326 kts | 298° |
| 2026-05-06 17:42 | 51.06900 | 4.16931 | 14295 ft | 330 kts | 297° |
| 2026-05-06 17:42 | 51.07971 | 4.13686 | 15067 ft | 334 kts | 297° |
| 2026-05-06 17:42 | 51.09059 | 4.10386 | 15790 ft | 340 kts | 297° |
| 2026-05-06 17:43 | 51.10163 | 4.07034 | 16519 ft | 344 kts | 297° |
| 2026-05-06 17:43 | 51.11276 | 4.03645 | 17267 ft | 348 kts | 297° |
| 2026-05-06 17:43 | 51.12403 | 4.00212 | 18029 ft | 350 kts | 297° |
| 2026-05-06 17:43 | 51.13537 | 3.96746 | 18632 ft | 356 kts | 297° |
| 2026-05-06 17:44 | 51.14686 | 3.93235 | 19218 ft | 360 kts | 297° |
| 2026-05-06 17:44 | 51.15844 | 3.89688 | 19822 ft | 363 kts | 297° |
| 2026-05-06 17:44 | 51.17014 | 3.86101 | 20428 ft | 366 kts | 297° |
| 2026-05-06 17:44 | 51.18188 | 3.82494 | 21016 ft | 370 kts | 297° |
| 2026-05-06 17:45 | 51.19374 | 3.78847 | 21617 ft | 373 kts | 296° |
| 2026-05-06 17:45 | 51.20567 | 3.75168 | 22281 ft | 373 kts | 296° |
| 2026-05-06 17:45 | 51.21763 | 3.71476 | 22839 ft | 378 kts | 296° |
| 2026-05-06 17:45 | 51.22973 | 3.67734 | 23415 ft | 380 kts | 296° |
| 2026-05-06 17:46 | 51.23858 | 3.63773 | 23843 ft | 382 kts | 281° |
| 2026-05-06 17:46 | 51.24401 | 3.59596 | 24312 ft | 385 kts | 282° |
| 2026-05-06 17:46 | 51.24979 | 3.55416 | 24798 ft | 387 kts | 281° |
| 2026-05-06 17:46 | 51.25549 | 3.51194 | 25227 ft | 391 kts | 281° |
| 2026-05-06 17:47 | 51.26116 | 3.46935 | 25659 ft | 394 kts | 281° |
| 2026-05-06 17:47 | 51.26681 | 3.42670 | 26125 ft | 396 kts | 281° |
| 2026-05-06 17:47 | 51.27243 | 3.38336 | 26522 ft | 400 kts | 281° |
| 2026-05-06 17:47 | 51.27805 | 3.33983 | 26991 ft | 401 kts | 281° |
| 2026-05-06 17:48 | 51.28368 | 3.29608 | 27413 ft | 404 kts | 281° |
| 2026-05-06 17:48 | 51.28742 | 3.26694 | 27738 ft | 404 kts | 281° |
| 2026-05-06 17:48 | 51.29306 | 3.22288 | 28217 ft | 405 kts | 280° |
| 2026-05-06 17:48 | 51.29872 | 3.17867 | 28576 ft | 409 kts | 280° |
| 2026-05-06 17:49 | 51.30441 | 3.13399 | 29039 ft | 410 kts | 281° |
| 2026-05-06 17:49 | 51.31010 | 3.08915 | 29333 ft | 415 kts | 281° |
| 2026-05-06 17:49 | 51.31767 | 3.02927 | 29899 ft | 416 kts | 280° |
| 2026-05-06 17:49 | 51.32153 | 2.99865 | 30146 ft | 417 kts | 281° |
| 2026-05-06 17:50 | 51.32727 | 2.95296 | 30454 ft | 419 kts | 280° |
| 2026-05-06 17:50 | 51.33300 | 2.90724 | 30768 ft | 421 kts | 280° |
| 2026-05-06 17:50 | 51.33875 | 2.86111 | 31009 ft | 425 kts | 280° |
| 2026-05-06 17:50 | 51.34452 | 2.81471 | 31366 ft | 426 kts | 280° |
| 2026-05-06 17:51 | 51.35024 | 2.76865 | 31562 ft | 430 kts | 281° |
| 2026-05-06 17:51 | 51.35606 | 2.72165 | 31930 ft | 430 kts | 280° |
| 2026-05-06 17:51 | 51.36190 | 2.67443 | 32223 ft | 433 kts | 280° |
| 2026-05-06 17:51 | 51.36770 | 2.62743 | 32645 ft | 431 kts | 280° |
| 2026-05-06 17:52 | 51.37347 | 2.58038 | 32982 ft | 432 kts | 281° |
| 2026-05-06 17:52 | 51.37924 | 2.53313 | 33343 ft | 432 kts | 281° |
| 2026-05-06 17:52 | 51.38500 | 2.48590 | 33651 ft | 433 kts | 281° |
| 2026-05-06 17:52 | 51.39074 | 2.43864 | 34040 ft | 432 kts | 281° |
| 2026-05-06 17:53 | 51.39644 | 2.39153 | 34381 ft | 431 kts | 281° |
| 2026-05-06 17:53 | 51.40212 | 2.34439 | 34661 ft | 431 kts | 281° |
| 2026-05-06 17:53 | 51.40778 | 2.29728 | 34970 ft | 431 kts | 281° |
| 2026-05-06 17:53 | 51.41350 | 2.25026 | 35188 ft | 432 kts | 281° |
| 2026-05-06 17:54 | 51.41929 | 2.20300 | 35465 ft | 433 kts | 281° |
| 2026-05-06 17:54 | 51.42507 | 2.15557 | 35713 ft | 434 kts | 281° |
| 2026-05-06 17:54 | 51.43083 | 2.10817 | 35961 ft | 434 kts | 281° |
| 2026-05-06 17:54 | 51.43657 | 2.06067 | 35965 ft | 433 kts | 280° |
| 2026-05-06 17:55 | 51.44787 | 1.96621 | 35953 ft | 431 kts | 280° |
| 2026-05-06 17:55 | 51.45902 | 1.87160 | 35958 ft | 432 kts | 280° |
| 2026-05-06 17:56 | 51.47001 | 1.77693 | 35957 ft | 432 kts | 280° |
| 2026-05-06 17:56 | 51.48093 | 1.68222 | 35962 ft | 432 kts | 280° |
| 2026-05-06 17:57 | 51.49177 | 1.58744 | 35962 ft | 432 kts | 280° |
| 2026-05-06 17:57 | 51.50253 | 1.49264 | 35963 ft | 432 kts | 279° |
| 2026-05-06 17:58 | 51.51313 | 1.39854 | 35967 ft | 431 kts | 279° |
| 2026-05-06 17:58 | 51.52372 | 1.30390 | 35968 ft | 431 kts | 279° |
| 2026-05-06 17:59 | 51.53422 | 1.20926 | 35968 ft | 431 kts | 279° |
| 2026-05-06 17:59 | 51.54464 | 1.11457 | 35971 ft | 431 kts | 279° |
| 2026-05-06 18:00 | 51.55499 | 1.01978 | 35970 ft | 430 kts | 279° |
| 2026-05-06 18:00 | 51.56526 | 0.92503 | 35993 ft | 430 kts | 279° |
| 2026-05-06 18:01 | 51.57542 | 0.83053 | 35999 ft | 429 kts | 279° |